Time;durP1;ratioP1;P1;durP2;ratioP2;P2;SDS_P1;SDS_P2;PMS_P1;PMS_P2;Temp;Humidity;BMP_temperature;BMP_pressure;BME280_temperature;BME280_humidity;BME280_pressure;Samples;Min_cycle;Max_cycle;Signal;HPM_P1;HPM_P2
2021/01/27 00:01:30;;;;;;;;;;;1.50;99.90;;;;;;5112753;28;19930;-61
2021/01/27 00:03:56;;;;;;;;;;;1.60;99.90;;;;;;5113057;28;19924;-62
2021/01/27 00:06:22;;;;;;;;;;;1.60;99.90;;;;;;5112791;28;19924;-63
2021/01/27 00:08:48;;;;;;;;;;;1.60;73.60;;;;;;5112758;28;20316;-64
2021/01/27 00:11:14;;;;;;;;;;;1.50;99.90;;;;;;5112415;28;19969;-64
2021/01/27 00:13:41;;;;;;;;;;;1.50;17.30;;;;;;5112982;28;19923;-64
2021/01/27 00:16:07;;;;;;;;;;;1.50;17.60;;;;;;5112834;28;20372;-64
2021/01/27 00:18:33;;;;;;;;;;;1.50;1.00;;;;;;5113000;28;19976;-63
2021/01/27 00:20:59;;;;;;;;;;;1.50;1.00;;;;;;5112832;28;19928;-64
2021/01/27 00:23:24;;;;;;;;;;;1.50;1.00;;;;;;5112703;28;19924;-63
2021/01/27 00:25:51;;;;;;;;;;;1.50;1.00;;;;;;5112791;28;19924;-63
2021/01/27 00:28:17;;;;;;;;;;;1.40;1.00;;;;;;5112676;28;19931;-64
2021/01/27 00:30:44;;;;;;;;;;;1.40;99.90;;;;;;5112574;28;19924;-63
2021/01/27 00:33:13;;;;;;;;;;;1.40;99.90;;;;;;5112228;28;19924;-60
2021/01/27 00:35:43;;;;;;;;;;;1.40;99.90;;;;;;5112852;28;19940;-63
2021/01/27 00:38:10;;;;;;;;;;;1.40;99.90;;;;;;5112769;28;19950;-63
2021/01/27 00:40:36;;;;;;;;;;;1.40;99.90;;;;;;5112833;28;19931;-61
2021/01/27 00:43:02;;;;;;;;;;;1.40;99.90;;;;;;5112415;28;19923;-62
2021/01/27 00:45:28;;;;;;;;;;;1.40;99.90;;;;;;5112712;28;20296;-62
2021/01/27 00:47:55;;;;;;;;;;;1.50;99.90;;;;;;5112291;28;20407;-60
2021/01/27 00:50:21;;;;;;;;;;;1.40;99.90;;;;;;5112582;28;19924;-62
2021/01/27 00:52:47;;;;;;;;;;;1.40;99.90;;;;;;5112297;28;20377;-62
2021/01/27 00:55:14;;;;;;;;;;;1.40;99.90;;;;;;5112454;28;19924;-62
2021/01/27 00:57:41;;;;;;;;;;;1.40;99.90;;;;;;5112495;28;19931;-61
2021/01/27 01:00:09;;;;;;;;;;;1.40;99.90;;;;;;5112393;28;19928;-60
2021/01/27 01:02:39;;;;;;;;;;;1.30;99.90;;;;;;5111925;28;20372;-59
2021/01/27 01:05:07;;;;;;;;;;;1.40;99.90;;;;;;5116330;28;19984;-60
2021/01/27 01:07:33;;;;;;;;;;;1.40;99.90;;;;;;5116440;28;19924;-63
2021/01/27 01:09:59;;;;;;;;;;;1.40;99.90;;;;;;5116341;28;19935;-60
2021/01/27 01:12:25;;;;;;;;;;;1.40;94.80;;;;;;5115938;28;19924;-60
2021/01/27 01:14:51;;;;;;;;;;;1.40;90.70;;;;;;5116083;28;19924;-62
2021/01/27 01:17:17;;;;;;;;;;;1.40;60.50;;;;;;5115948;28;19930;-62
2021/01/27 01:19:43;;;;;;;;;;;1.40;58.30;;;;;;5116169;28;20018;-62
2021/01/27 01:22:10;;;;;;;;;;;1.40;51.30;;;;;;5115886;28;19927;-62
2021/01/27 01:24:36;;;;;;;;;;;1.40;37.00;;;;;;5116323;28;19924;-61
2021/01/27 01:27:02;;;;;;;;;;;1.40;51.20;;;;;;5115965;28;19924;-63
2021/01/27 01:29:28;;;;;;;;;;;1.40;30.80;;;;;;5115682;28;19977;-59
2021/01/27 01:31:54;;;;;;;;;;;1.40;40.90;;;;;;5115532;28;19928;-61
2021/01/27 01:34:22;;;;;;;;;;;1.40;32.00;;;;;;5115788;28;19977;-63
2021/01/27 01:36:48;;;;;;;;;;;1.40;8.60;;;;;;5115870;28;19924;-61
2021/01/27 01:39:15;;;;;;;;;;;1.40;15.30;;;;;;5115572;28;20422;-62
2021/01/27 01:41:41;;;;;;;;;;;1.40;1.00;;;;;;5115119;28;19924;-62
2021/01/27 01:44:07;;;;;;;;;;;1.30;1.00;;;;;;5115460;27;19984;-63
2021/01/27 01:46:33;;;;;;;;;;;1.30;1.00;;;;;;5115566;28;19928;-62
2021/01/27 01:49:00;;;;;;;;;;;1.40;1.00;;;;;;5115736;27;19928;-63
2021/01/27 01:51:27;;;;;;;;;;;1.40;1.00;;;;;;5115046;28;20304;-61
2021/01/27 01:53:55;;;;;;;;;;;1.40;1.00;;;;;;5115391;27;19946;-65
2021/01/27 01:56:24;;;;;;;;;;;1.40;1.00;;;;;;5115343;28;20307;-64
2021/01/27 01:58:51;;;;;;;;;;;1.40;1.00;;;;;;5115163;28;19923;-64
2021/01/27 02:01:19;;;;;;;;;;;1.40;1.00;;;;;;5114920;28;19931;-63
2021/01/27 02:03:45;;;;;;;;;;;1.40;1.00;;;;;;5114918;28;20376;-65
2021/01/27 02:06:11;;;;;;;;;;;1.40;1.00;;;;;;5115056;28;20429;-64
2021/01/27 02:08:42;;;;;;;;;;;1.30;1.00;;;;;;5114936;28;19931;-64
2021/01/27 02:11:08;;;;;;;;;;;1.30;1.00;;;;;;5114618;28;19923;-64
2021/01/27 02:13:51;;;;;;;;;;;1.30;1.00;;;;;;5114404;28;19997;-64
2021/01/27 02:16:25;;;;;;;;;;;1.30;1.00;;;;;;5114911;28;19947;-62
2021/01/27 02:19:00;;;;;;;;;;;1.30;1.00;;;;;;5114785;27;19931;-62
2021/01/27 02:21:39;;;;;;;;;;;1.30;1.00;;;;;;5114494;28;19924;-64
2021/01/27 02:24:28;;;;;;;;;;;1.30;1.00;;;;;;5114618;28;20413;-64
2021/01/27 02:27:03;;;;;;;;;;;1.30;1.00;;;;;;5114868;28;20296;-64
2021/01/27 02:29:45;;;;;;;;;;;1.30;1.00;;;;;;5114863;28;19935;-64
2021/01/27 02:32:27;;;;;;;;;;;1.30;1.00;;;;;;5113909;27;19923;-65
2021/01/27 02:35:00;;;;;;;;;;;1.30;1.00;;;;;;5114798;28;19931;-65
2021/01/27 02:37:29;;;;;;;;;;;1.30;1.00;;;;;;5114435;28;19977;-64
2021/01/27 02:39:58;;;;;;;;;;;1.30;1.00;;;;;;5114358;28;20435;-65
2021/01/27 02:42:28;;;;;;;;;;;1.30;1.00;;;;;;5113820;28;19928;-62
2021/01/27 02:44:56;;;;;;;;;;;1.40;1.00;;;;;;5114469;27;19969;-63
2021/01/27 02:47:24;;;;;;;;;;;1.30;1.00;;;;;;5114214;28;19933;-63
2021/01/27 02:49:52;;;;;;;;;;;1.40;1.00;;;;;;5114263;28;20375;-63
2021/01/27 02:52:21;;;;;;;;;;;1.30;1.00;;;;;;5114017;28;19993;-64
2021/01/27 02:54:49;;;;;;;;;;;1.30;1.00;;;;;;5114193;28;19924;-65
2021/01/27 02:57:18;;;;;;;;;;;1.40;1.00;;;;;;5114433;28;20285;-64
2021/01/27 02:59:47;;;;;;;;;;;1.30;1.00;;;;;;5114066;28;19931;-64
2021/01/27 03:02:16;;;;;;;;;;;1.40;1.00;;;;;;5113766;28;19924;-64
2021/01/27 03:04:44;;;;;;;;;;;1.40;1.00;;;;;;5113692;28;19977;-64
2021/01/27 03:07:12;;;;;;;;;;;1.40;1.00;;;;;;5113965;28;19924;-64
2021/01/27 03:09:43;;;;;;;;;;;1.40;1.00;;;;;;5113516;28;19924;-64
2021/01/27 03:12:09;;;;;;;;;;;1.30;1.00;;;;;;5113744;28;20288;-63
2021/01/27 03:14:35;;;;;;;;;;;1.30;1.00;;;;;;5113825;28;19924;-63
2021/01/27 03:17:04;;;;;;;;;;;1.30;1.00;;;;;;5113524;28;20395;-63
2021/01/27 03:19:32;;;;;;;;;;;1.30;1.00;;;;;;5113737;28;19931;-64
2021/01/27 03:21:59;;;;;;;;;;;1.30;1.00;;;;;;5112975;28;19930;-63
2021/01/27 03:24:27;;;;;;;;;;;1.20;1.00;;;;;;5113784;28;19924;-63
2021/01/27 03:26:57;;;;;;;;;;;1.20;1.00;;;;;;5112798;28;19939;-63
2021/01/27 03:29:27;;;;;;;;;;;1.20;1.00;;;;;;5113443;28;19923;-63
2021/01/27 03:31:54;;;;;;;;;;;1.20;1.00;;;;;;5112996;28;19931;-64
2021/01/27 03:34:22;;;;;;;;;;;1.20;1.00;;;;;;5113521;28;19923;-64
2021/01/27 03:36:50;;;;;;;;;;;1.10;1.00;;;;;;5113168;28;19924;-63
2021/01/27 03:39:16;;;;;;;;;;;1.10;9.80;;;;;;5113238;28;19924;-64
2021/01/27 03:41:45;;;;;;;;;;;1.20;33.20;;;;;;5113043;28;19949;-62
2021/01/27 03:44:16;;;;;;;;;;;1.20;56.80;;;;;;5113213;28;19931;-61
2021/01/27 03:46:45;;;;;;;;;;;1.10;49.30;;;;;;5113144;28;19931;-60
2021/01/27 03:49:13;;;;;;;;;;;1.10;72.60;;;;;;5112922;28;19957;-59
2021/01/27 03:51:41;;;;;;;;;;;1.10;99.90;;;;;;5113046;28;20440;-58
2021/01/27 03:54:13;;;;;;;;;;;1.20;97.80;;;;;;5113591;28;19924;-62
2021/01/27 03:56:42;;;;;;;;;;;1.20;99.90;;;;;;5116266;28;20468;-62
2021/01/27 03:59:09;;;;;;;;;;;1.20;99.90;;;;;;5115064;28;19957;-62
2021/01/27 04:01:43;;;;;;;;;;;1.30;99.90;;;;;;5112797;28;19928;-60
2021/01/27 04:04:09;;;;;;;;;;;1.20;99.90;;;;;;5113072;28;19923;-59
2021/01/27 04:06:35;;;;;;;;;;;1.20;99.90;;;;;;5112930;28;19931;-60
2021/01/27 04:09:01;;;;;;;;;;;1.20;99.90;;;;;;5113133;28;19927;-61
2021/01/27 04:11:27;;;;;;;;;;;1.20;99.90;;;;;;5113203;28;19928;-61
2021/01/27 04:13:53;;;;;;;;;;;1.20;99.90;;;;;;5113114;28;19923;-59
2021/01/27 04:16:20;;;;;;;;;;;1.30;99.90;;;;;;5112877;28;19935;-63
2021/01/27 04:18:47;;;;;;;;;;;1.30;99.90;;;;;;5113066;28;19924;-64
2021/01/27 04:21:13;;;;;;;;;;;1.30;99.90;;;;;;5112564;28;19924;-62
2021/01/27 04:23:39;;;;;;;;;;;1.30;99.90;;;;;;5117483;28;20296;-63
2021/01/27 04:26:05;;;;;;;;;;;1.30;99.90;;;;;;5120183;28;19935;-64
2021/01/27 04:28:31;;;;;;;;;;;1.30;99.90;;;;;;5117571;28;19924;-64
2021/01/27 04:30:57;;;;;;;;;;;1.30;99.90;;;;;;5110854;28;20403;-64
2021/01/27 04:33:24;;;;;;;;;;;1.30;99.90;;;;;;5092119;28;19931;-63
2021/01/27 04:35:52;;;;;;;;;;;1.30;99.90;;;;;;5092508;28;19924;-62
2021/01/27 04:38:18;;;;;;;;;;;1.30;99.90;;;;;;5095149;28;19977;-64
2021/01/27 04:40:45;;;;;;;;;;;1.30;99.90;;;;;;5096222;28;19977;-64
2021/01/27 04:43:15;;;;;;;;;;;1.30;99.90;;;;;;5095926;28;19924;-63
2021/01/27 04:45:45;;;;;;;;;;;1.30;99.90;;;;;;5096231;28;19924;-64
2021/01/27 04:48:15;;;;;;;;;;;1.30;99.90;;;;;;5096519;28;19970;-63
2021/01/27 04:50:45;;;;;;;;;;;1.30;99.90;;;;;;5096058;28;19931;-62
2021/01/27 04:53:23;;;;;;;;;;;1.30;99.90;;;;;;5095847;28;19924;-64
2021/01/27 04:56:02;;;;;;;;;;;1.30;99.90;;;;;;5095979;28;19935;-62
2021/01/27 04:58:34;;;;;;;;;;;1.30;99.90;;;;;;5096294;28;19931;-63
2021/01/27 05:01:07;;;;;;;;;;;1.40;99.90;;;;;;5096062;28;20384;-61
2021/01/27 05:03:43;;;;;;;;;;;1.40;99.90;;;;;;5095635;28;19977;-63
2021/01/27 05:06:11;;;;;;;;;;;1.40;99.90;;;;;;5096020;28;19935;-59
2021/01/27 05:08:41;;;;;;;;;;;1.40;99.90;;;;;;5096110;28;19931;-62
2021/01/27 05:11:08;;;;;;;;;;;1.40;99.90;;;;;;5096141;28;19978;-62
2021/01/27 05:13:34;;;;;;;;;;;1.40;99.90;;;;;;5095638;28;19978;-62
2021/01/27 05:16:01;;;;;;;;;;;1.40;99.90;;;;;;5095978;28;19947;-61
2021/01/27 05:18:28;;;;;;;;;;;1.40;1.00;;;;;;5095597;28;19924;-61
2021/01/27 05:20:54;;;;;;;;;;;1.30;1.00;;;;;;5095702;28;19924;-61
2021/01/27 05:23:20;;;;;;;;;;;1.40;1.00;;;;;;5093297;28;19931;-62
2021/01/27 05:25:49;;;;;;;;;;;1.30;1.00;;;;;;5112142;28;19931;-62
2021/01/27 05:28:18;;;;;;;;;;;1.30;1.00;;;;;;5116121;28;19937;-60
2021/01/27 05:30:50;;;;;;;;;;;1.40;1.00;;;;;;5114461;28;19924;-62
2021/01/27 05:33:17;;;;;;;;;;;1.30;1.00;;;;;;5115312;28;20403;-62
2021/01/27 05:35:43;;;;;;;;;;;1.40;1.00;;;;;;5115123;28;20373;-60
2021/01/27 05:38:20;;;;;;;;;;;1.30;1.00;;;;;;5115651;28;19949;-64
2021/01/27 05:40:46;;;;;;;;;;;1.40;1.00;;;;;;5115876;28;19973;-64
2021/01/27 05:43:14;;;;;;;;;;;1.50;95.20;;;;;;5115560;28;19923;-64
2021/01/27 05:45:41;;;;;;;;;;;1.50;1.00;;;;;;5115629;28;19931;-65
2021/01/27 05:48:12;;;;;;;;;;;1.60;1.00;;;;;;5115452;28;19993;-63
2021/01/27 05:50:39;;;;;;;;;;;1.60;1.00;;;;;;5114585;28;20388;-62
2021/01/27 05:53:12;;;;;;;;;;;1.60;99.90;;;;;;5115046;28;19924;-63
2021/01/27 05:55:53;;;;;;;;;;;1.60;99.90;;;;;;5115386;28;19923;-63
2021/01/27 05:58:20;;;;;;;;;;;1.50;99.90;;;;;;5115161;28;19928;-63
2021/01/27 06:00:46;;;;;;;;;;;1.50;99.90;;;;;;5115338;28;19924;-65
2021/01/27 06:03:20;;;;;;;;;;;1.50;1.00;;;;;;5114591;28;20280;-65
2021/01/27 06:05:46;;;;;;;;;;;1.50;1.00;;;;;;5114873;28;19981;-65
2021/01/27 06:08:14;;;;;;;;;;;1.40;1.00;;;;;;5114955;28;20395;-65
2021/01/27 06:10:40;;;;;;;;;;;1.40;1.00;;;;;;5114579;27;19923;-65
2021/01/27 06:13:21;;;;;;;;;;;1.40;1.00;;;;;;5114682;28;19928;-63
2021/01/27 06:15:48;;;;;;;;;;;1.40;1.00;;;;;;5112074;28;19923;-64
2021/01/27 06:18:21;;;;;;;;;;;1.40;1.00;;;;;;5115067;28;19923;-63
2021/01/27 06:20:48;;;;;;;;;;;1.40;1.00;;;;;;5114602;28;19976;-63
2021/01/27 06:23:25;;;;;;;;;;;1.40;43.80;;;;;;5114273;28;20304;-64
2021/01/27 06:25:58;;;;;;;;;;;1.40;88.10;;;;;;5114733;28;20300;-62
2021/01/27 06:28:32;;;;;;;;;;;1.40;1.00;;;;;;5114941;28;19930;-63
2021/01/27 06:31:05;;;;;;;;;;;1.40;33.70;;;;;;5114623;28;19969;-63
2021/01/27 06:33:47;;;;;;;;;;;1.40;55.40;;;;;;5114807;28;19924;-63
2021/01/27 06:36:19;;;;;;;;;;;1.40;77.00;;;;;;5114928;27;19928;-62
2021/01/27 06:38:57;;;;;;;;;;;1.40;99.90;;;;;;5113669;28;20370;-65
2021/01/27 06:41:34;;;;;;;;;;;1.40;99.90;;;;;;5114651;28;19923;-66
2021/01/27 06:44:19;;;;;;;;;;;1.40;99.90;;;;;;5098239;28;20342;-65
2021/01/27 06:47:03;;;;;;;;;;;1.30;99.90;;;;;;5094158;28;20365;-68
2021/01/27 06:49:59;;;;;;;;;;;1.30;99.90;;;;;;5093433;28;19951;-66
2021/01/27 06:52:43;;;;;;;;;;;1.40;99.90;;;;;;5050924;28;19924;-67
2021/01/27 06:55:17;;;;;;;;;;;1.40;99.90;;;;;;5078219;28;19935;-67
2021/01/27 06:57:55;;;;;;;;;;;1.40;99.90;;;;;;5094194;28;19924;-67
2021/01/27 07:00:28;;;;;;;;;;;1.40;99.90;;;;;;5093823;28;19947;-65
2021/01/27 07:03:05;;;;;;;;;;;1.40;99.90;;;;;;5094030;28;19924;-64
2021/01/27 07:05:50;;;;;;;;;;;1.30;1.00;;;;;;5096906;28;20388;-63
2021/01/27 07:08:21;;;;;;;;;;;1.40;1.00;;;;;;5093602;28;19928;-64
2021/01/27 07:10:54;;;;;;;;;;;1.40;1.00;;;;;;5093354;28;19970;-66
2021/01/27 07:13:38;;;;;;;;;;;1.40;1.00;;;;;;5093037;28;20519;-66
2021/01/27 07:16:07;;;;;;;;;;;1.40;1.00;;;;;;5085968;28;19924;-67
2021/01/27 07:18:54;;;;;;;;;;;1.40;1.00;;;;;;5093404;28;20342;-68
2021/01/27 07:21:25;;;;;;;;;;;1.40;1.00;;;;;;5075230;28;19947;-66
2021/01/27 07:23:57;;;;;;;;;;;1.40;1.00;;;;;;5092477;28;19926;-65
2021/01/27 07:26:25;;;;;;;;;;;1.40;1.00;;;;;;5093398;28;19924;-64
2021/01/27 07:28:56;;;;;;;;;;;1.40;1.00;;;;;;5093052;28;19924;-65
2021/01/27 07:31:26;;;;;;;;;;;1.40;1.00;;;;;;5093239;28;20277;-65
2021/01/27 07:33:54;;;;;;;;;;;1.40;1.00;;;;;;5093090;28;19932;-65
2021/01/27 07:36:33;;;;;;;;;;;1.30;91.00;;;;;;5093241;28;19924;-65
2021/01/27 07:39:00;;;;;;;;;;;1.30;99.90;;;;;;5092945;28;19928;-66
2021/01/27 07:41:32;;;;;;;;;;;1.30;99.90;;;;;;5092963;28;19932;-63
2021/01/27 07:44:00;;;;;;;;;;;1.30;99.90;;;;;;5093205;28;19924;-64
2021/01/27 07:46:30;;;;;;;;;;;1.30;99.90;;;;;;5092991;28;20292;-63
2021/01/27 07:48:59;;;;;;;;;;;1.30;99.90;;;;;;5092796;28;19934;-65
2021/01/27 07:51:26;;;;;;;;;;;1.30;1.00;;;;;;5092742;28;20376;-65
2021/01/27 07:53:58;;;;;;;;;;;1.30;1.00;;;;;;5092851;28;19931;-65
2021/01/27 07:56:27;;;;;;;;;;;1.30;1.00;;;;;;5092700;28;19931;-64
2021/01/27 07:58:58;;;;;;;;;;;1.30;1.00;;;;;;5092764;28;19924;-65
2021/01/27 08:01:27;;;;;;;;;;;1.30;1.00;;;;;;5092248;28;19925;-65
2021/01/27 08:03:57;;;;;;;;;;;1.40;1.00;;;;;;5091888;28;19924;-67
2021/01/27 08:06:24;;;;;;;;;;;1.30;1.00;;;;;;5091888;28;19928;-64
2021/01/27 08:08:51;;;;;;;;;;;1.30;69.50;;;;;;5090229;28;19957;-65
2021/01/27 08:11:20;;;;;;;;;;;1.30;99.90;;;;;;5092397;28;19924;-65
2021/01/27 08:13:47;;;;;;;;;;;1.30;99.90;;;;;;5091648;28;19931;-66
2021/01/27 08:16:28;;;;;;;;;;;1.30;99.90;;;;;;5092691;28;20381;-67
2021/01/27 08:19:27;;;;;;;;;;;1.30;99.90;;;;;;5092698;28;19924;-68
2021/01/27 08:22:01;;;;;;;;;;;1.30;99.90;;;;;;5092381;28;19924;-67
2021/01/27 08:24:46;;;;;;;;;;;1.30;1.00;;;;;;5092670;28;19928;-67
2021/01/27 08:27:17;;;;;;;;;;;1.30;1.00;;;;;;5092619;28;19924;-65
2021/01/27 08:30:05;;;;;;;;;;;1.20;1.00;;;;;;5092622;28;20273;-65
2021/01/27 08:32:32;;;;;;;;;;;1.20;99.90;;;;;;5091953;28;20018;-66
2021/01/27 08:34:59;;;;;;;;;;;1.30;99.90;;;;;;5092469;28;19928;-65
2021/01/27 08:37:27;;;;;;;;;;;1.20;99.90;;;;;;5092274;28;20399;-66
2021/01/27 08:40:07;;;;;;;;;;;1.30;99.90;;;;;;5092405;28;19977;-66
2021/01/27 08:42:39;;;;;;;;;;;1.30;99.90;;;;;;5090188;28;20338;-66
2021/01/27 08:45:10;;;;;;;;;;;1.30;1.00;;;;;;5092191;28;20035;-66
2021/01/27 08:47:38;;;;;;;;;;;1.30;1.00;;;;;;5091642;28;19931;-67
2021/01/27 08:50:05;;;;;;;;;;;1.30;1.00;;;;;;5092339;28;19924;-69
2021/01/27 08:52:44;;;;;;;;;;;1.30;1.00;;;;;;5091977;28;19931;-66
2021/01/27 08:55:28;;;;;;;;;;;1.30;1.00;;;;;;5092183;28;19924;-66
2021/01/27 08:58:16;;;;;;;;;;;1.40;1.00;;;;;;5091656;28;19957;-67
2021/01/27 09:00:43;;;;;;;;;;;1.30;1.00;;;;;;5092269;28;20304;-67
2021/01/27 09:03:29;;;;;;;;;;;1.30;55.30;;;;;;5092524;28;19931;-68
2021/01/27 09:05:57;;;;;;;;;;;1.40;99.90;;;;;;5092147;28;19924;-67
2021/01/27 09:08:26;;;;;;;;;;;1.40;99.90;;;;;;5092262;28;19924;-67
2021/01/27 09:10:54;;;;;;;;;;;1.40;99.90;;;;;;5091904;28;19924;-65
2021/01/27 09:13:21;;;;;;;;;;;1.50;99.90;;;;;;5091709;28;19931;-65
2021/01/27 09:15:50;;;;;;;;;;;1.50;99.90;;;;;;5092110;28;19926;-65
2021/01/27 09:18:16;;;;;;;;;;;1.60;86.40;;;;;;5092128;28;19931;-65
2021/01/27 09:20:42;;;;;;;;;;;1.60;47.60;;;;;;5093034;28;19924;-66
2021/01/27 09:23:09;;;;;;;;;;;1.60;21.70;;;;;;5091545;28;19928;-67
2021/01/27 09:25:43;;;;;;;;;;;1.60;19.10;;;;;;5095404;28;19977;-67
2021/01/27 09:28:09;;;;;;;;;;;1.60;61.40;;;;;;5095045;28;19982;-65
2021/01/27 09:30:36;;;;;;;;;;;1.60;46.80;;;;;;5095592;28;19932;-68
2021/01/27 09:33:08;;;;;;;;;;;1.70;24.60;;;;;;5097245;28;19928;-66
2021/01/27 09:35:35;;;;;;;;;;;1.60;1.00;;;;;;5095644;28;20339;-67
2021/01/27 09:38:04;;;;;;;;;;;1.60;1.00;;;;;;5095314;28;19931;-67
2021/01/27 09:40:33;;;;;;;;;;;1.60;1.00;;;;;;5095560;28;19970;-66
2021/01/27 09:43:00;;;;;;;;;;;1.70;1.00;;;;;;5096481;28;19928;-66
2021/01/27 09:45:27;;;;;;;;;;;1.70;1.00;;;;;;5097327;28;20343;-64
2021/01/27 09:47:53;;;;;;;;;;;1.60;1.00;;;;;;5096919;28;19994;-64
2021/01/27 09:50:20;;;;;;;;;;;1.70;1.00;;;;;;5099542;28;19924;-65
2021/01/27 09:52:50;;;;;;;;;;;1.70;1.00;;;;;;5102696;28;19924;-66
2021/01/27 09:55:17;;;;;;;;;;;1.70;1.00;;;;;;5100535;28;20335;-66
2021/01/27 09:57:45;;;;;;;;;;;1.80;1.00;;;;;;5107628;28;20281;-65
2021/01/27 10:00:12;;;;;;;;;;;1.80;99.90;;;;;;5115762;28;20496;-66
2021/01/27 10:02:38;;;;;;;;;;;1.80;1.00;;;;;;5115935;28;19924;-64
2021/01/27 10:05:19;;;;;;;;;;;1.80;99.90;;;;;;5115825;28;20523;-65
2021/01/27 10:07:45;;;;;;;;;;;1.80;1.00;;;;;;5114679;27;19947;-66
2021/01/27 10:10:14;;;;;;;;;;;1.90;1.00;;;;;;5115993;28;20342;-65
2021/01/27 10:12:40;;;;;;;;;;;1.90;1.00;;;;;;5115963;27;20626;-64
2021/01/27 10:15:16;;;;;;;;;;;1.90;1.00;;;;;;5115588;28;19977;-64
2021/01/27 10:17:42;;;;;;;;;;;1.90;1.00;;;;;;5115134;27;19923;-64
2021/01/27 10:20:20;;;;;;;;;;;1.90;1.00;;;;;;5114820;28;19931;-64
2021/01/27 10:22:53;;;;;;;;;;;1.90;99.90;;;;;;5114581;28;19924;-64
2021/01/27 10:25:28;;;;;;;;;;;2.00;99.90;;;;;;5114972;28;19931;-65
2021/01/27 10:28:05;;;;;;;;;;;1.90;99.90;;;;;;5114732;28;19969;-67
2021/01/27 10:30:43;;;;;;;;;;;1.90;99.90;;;;;;5114633;28;19930;-66
2021/01/27 10:33:24;;;;;;;;;;;2.00;1.00;;;;;;5114815;28;20486;-67
2021/01/27 10:35:50;;;;;;;;;;;2.00;1.00;;;;;;5114926;28;19949;-66
2021/01/27 10:38:18;;;;;;;;;;;2.00;51.90;;;;;;5114055;28;20376;-66
2021/01/27 10:41:03;;;;;;;;;;;2.00;99.90;;;;;;5114426;28;19931;-67
2021/01/27 10:43:29;;;;;;;;;;;2.00;99.90;;;;;;5114096;28;19927;-67
2021/01/27 10:45:56;;;;;;;;;;;1.90;99.90;;;;;;5114303;28;19931;-67
2021/01/27 10:48:26;;;;;;;;;;;2.00;99.90;;;;;;5113933;28;19927;-67
2021/01/27 10:51:03;;;;;;;;;;;2.00;99.90;;;;;;5120079;28;19923;-68
2021/01/27 10:53:30;;;;;;;;;;;2.00;99.90;;;;;;5119556;28;20349;-69
2021/01/27 10:55:57;;;;;;;;;;;2.00;99.90;;;;;;5118761;28;19924;-65
2021/01/27 10:58:23;;;;;;;;;;;2.00;99.90;;;;;;5117870;28;19924;-68
2021/01/27 11:00:49;;;;;;;;;;;2.00;1.00;;;;;;5120156;28;19924;-68
2021/01/27 11:03:17;;;;;;;;;;;2.00;1.00;;;;;;5118704;28;19928;-66
2021/01/27 11:05:44;;;;;;;;;;;2.00;1.00;;;;;;5116540;28;19930;-69
2021/01/27 11:08:15;;;;;;;;;;;2.10;1.00;;;;;;5114208;28;19927;-68
2021/01/27 11:10:41;;;;;;;;;;;2.10;1.00;;;;;;5114777;27;20015;-67
2021/01/27 11:13:07;;;;;;;;;;;2.10;1.00;;;;;;5113389;28;20276;-67
2021/01/27 11:15:33;;;;;;;;;;;2.20;1.00;;;;;;5113862;28;20331;-68
2021/01/27 11:17:59;;;;;;;;;;;2.20;1.00;;;;;;5113493;28;19932;-68
2021/01/27 11:20:26;;;;;;;;;;;2.20;1.00;;;;;;5115012;28;19923;-68
2021/01/27 11:22:53;;;;;;;;;;;2.20;1.00;;;;;;5114184;28;19923;-66
2021/01/27 11:25:21;;;;;;;;;;;2.20;1.00;;;;;;5117296;28;19932;-68
2021/01/27 11:27:48;;;;;;;;;;;2.20;1.00;;;;;;5114220;28;19927;-67
2021/01/27 11:30:15;;;;;;;;;;;2.20;1.00;;;;;;5113188;28;20461;-67
2021/01/27 11:32:41;;;;;;;;;;;2.20;1.00;;;;;;5113288;28;19923;-67
2021/01/27 11:35:08;;;;;;;;;;;2.20;36.70;;;;;;5113452;28;19924;-65
2021/01/27 11:37:34;;;;;;;;;;;2.20;99.90;;;;;;5112848;28;19949;-65
2021/01/27 11:40:00;;;;;;;;;;;2.20;99.90;;;;;;5112810;28;19928;-64
2021/01/27 11:42:26;;;;;;;;;;;2.20;77.70;;;;;;5112951;28;19985;-64
2021/01/27 11:44:53;;;;;;;;;;;2.20;99.90;;;;;;5113159;28;20338;-66
2021/01/27 11:47:19;;;;;;;;;;;2.20;99.90;;;;;;5112562;28;19934;-66
2021/01/27 11:49:46;;;;;;;;;;;2.20;99.90;;;;;;5113057;28;19923;-67
2021/01/27 11:52:12;;;;;;;;;;;2.30;99.90;;;;;;5113570;28;20018;-64
2021/01/27 11:54:39;;;;;;;;;;;2.30;99.90;;;;;;5113211;28;19949;-65
2021/01/27 11:57:06;;;;;;;;;;;2.40;99.90;;;;;;5113348;28;19947;-67
2021/01/27 11:59:32;;;;;;;;;;;2.40;99.90;;;;;;5112766;28;19924;-65
2021/01/27 12:01:58;;;;;;;;;;;2.40;99.90;;;;;;5112539;28;19931;-66
2021/01/27 12:04:24;;;;;;;;;;;2.50;99.90;;;;;;5112664;28;20288;-65
2021/01/27 12:06:52;;;;;;;;;;;2.50;99.90;;;;;;5112441;28;21234;-64
2021/01/27 12:09:18;;;;;;;;;;;2.50;99.90;;;;;;5111963;28;19927;-65
2021/01/27 12:11:45;;;;;;;;;;;2.50;99.90;;;;;;5113187;28;19924;-65
2021/01/27 12:14:10;;;;;;;;;;;2.50;99.90;;;;;;5112510;28;19981;-68
2021/01/27 12:16:36;;;;;;;;;;;2.60;99.90;;;;;;5112664;28;20383;-68
2021/01/27 12:19:03;;;;;;;;;;;2.60;99.90;;;;;;5113311;28;19923;-66
2021/01/27 12:21:29;;;;;;;;;;;2.60;99.90;;;;;;5115359;28;20346;-66
2021/01/27 12:23:55;;;;;;;;;;;2.60;99.90;;;;;;5112057;28;19924;-67
2021/01/27 12:26:21;;;;;;;;;;;2.60;99.90;;;;;;5113360;28;19927;-68
2021/01/27 12:28:47;;;;;;;;;;;2.50;99.90;;;;;;5112731;28;19930;-68
2021/01/27 12:31:14;;;;;;;;;;;2.50;99.90;;;;;;5113187;28;20063;-68
2021/01/27 12:33:40;;;;;;;;;;;2.50;99.90;;;;;;5112266;28;19927;-68
2021/01/27 12:36:06;;;;;;;;;;;2.50;99.90;;;;;;5112228;28;19924;-65
2021/01/27 12:38:32;;;;;;;;;;;2.60;99.90;;;;;;5111065;28;20586;-66
2021/01/27 12:40:59;;;;;;;;;;;2.60;99.90;;;;;;5112404;28;19932;-66
2021/01/27 12:43:26;;;;;;;;;;;2.60;99.90;;;;;;5111778;28;19928;-67
2021/01/27 12:45:53;;;;;;;;;;;2.60;99.90;;;;;;5112319;28;20441;-67
2021/01/27 12:48:19;;;;;;;;;;;2.60;99.90;;;;;;5112453;28;19924;-66
2021/01/27 12:50:45;;;;;;;;;;;2.60;99.90;;;;;;5112316;28;19924;-67
2021/01/27 12:53:11;;;;;;;;;;;2.60;99.90;;;;;;5112564;28;19949;-66
2021/01/27 12:55:37;;;;;;;;;;;2.60;99.90;;;;;;5111979;28;19924;-66
2021/01/27 12:58:03;;;;;;;;;;;2.60;99.90;;;;;;5112536;28;19977;-66
2021/01/27 13:00:29;;;;;;;;;;;2.70;99.90;;;;;;5116493;28;20453;-67
2021/01/27 13:02:56;;;;;;;;;;;2.70;99.90;;;;;;5115928;28;19923;-68
2021/01/27 13:05:23;;;;;;;;;;;2.70;99.90;;;;;;5116469;27;20064;-68
2021/01/27 13:07:49;;;;;;;;;;;2.70;99.90;;;;;;5116218;28;19924;-68
2021/01/27 13:10:15;;;;;;;;;;;2.70;99.90;;;;;;5116238;28;19931;-68
2021/01/27 13:12:42;;;;;;;;;;;2.80;1.00;;;;;;5116322;28;19924;-65
2021/01/27 13:15:09;;;;;;;;;;;2.80;99.90;;;;;;5116689;28;19923;-67
2021/01/27 13:17:35;;;;;;;;;;;2.70;99.90;;;;;;5116224;28;19939;-68
2021/01/27 13:20:02;;;;;;;;;;;2.80;1.00;;;;;;5115899;28;19923;-66
2021/01/27 13:22:28;;;;;;;;;;;2.80;1.00;;;;;;5116026;27;19927;-67
2021/01/27 13:24:54;;;;;;;;;;;2.80;1.00;;;;;;5116231;27;20026;-68
2021/01/27 13:27:21;;;;;;;;;;;2.80;1.00;;;;;;5116360;28;19931;-68
2021/01/27 13:29:47;;;;;;;;;;;2.80;1.00;;;;;;5116062;28;19924;-66
2021/01/27 13:32:13;;;;;;;;;;;2.70;1.00;;;;;;5115702;28;19931;-67
2021/01/27 13:34:39;;;;;;;;;;;2.80;1.00;;;;;;5115569;28;20380;-67
2021/01/27 13:37:05;;;;;;;;;;;2.70;1.00;;;;;;5115851;28;19928;-67
2021/01/27 13:39:32;;;;;;;;;;;2.70;1.00;;;;;;5117099;28;19927;-68
2021/01/27 13:41:57;;;;;;;;;;;2.80;1.00;;;;;;5116067;28;19924;-69
2021/01/27 13:44:24;;;;;;;;;;;2.80;13.10;;;;;;5115866;28;19924;-67
2021/01/27 13:46:50;;;;;;;;;;;2.80;60.30;;;;;;5115482;28;20388;-66
2021/01/27 13:49:16;;;;;;;;;;;2.80;71.80;;;;;;5115435;28;19924;-67
2021/01/27 13:51:42;;;;;;;;;;;2.80;99.90;;;;;;5115499;28;19924;-70
2021/01/27 13:54:09;;;;;;;;;;;2.80;99.90;;;;;;5114959;28;20441;-66
2021/01/27 13:56:35;;;;;;;;;;;2.80;99.90;;;;;;5115541;28;20039;-67
2021/01/27 13:59:01;;;;;;;;;;;2.80;99.90;;;;;;5115141;28;20380;-66
2021/01/27 14:01:27;;;;;;;;;;;2.80;99.90;;;;;;5114926;28;19924;-67
2021/01/27 14:03:53;;;;;;;;;;;2.80;99.90;;;;;;5114105;28;19928;-65
2021/01/27 14:06:19;;;;;;;;;;;2.80;99.90;;;;;;5115096;28;19972;-65
2021/01/27 14:08:45;;;;;;;;;;;2.90;99.90;;;;;;5114886;28;20337;-65
2021/01/27 14:11:12;;;;;;;;;;;2.90;1.00;;;;;;5114290;28;19924;-65
2021/01/27 14:13:38;;;;;;;;;;;2.90;1.00;;;;;;5115143;28;19924;-66
2021/01/27 14:16:04;;;;;;;;;;;2.90;1.00;;;;;;5115078;28;19968;-65
2021/01/27 14:18:30;;;;;;;;;;;3.00;1.00;;;;;;5114787;28;19924;-65
2021/01/27 14:20:56;;;;;;;;;;;3.00;1.00;;;;;;5114853;28;19923;-65
2021/01/27 14:23:22;;;;;;;;;;;3.00;1.00;;;;;;5114478;28;19924;-66
2021/01/27 14:25:48;;;;;;;;;;;3.00;1.00;;;;;;5114968;28;19924;-65
2021/01/27 14:28:15;;;;;;;;;;;3.10;1.00;;;;;;5114482;28;19928;-68
2021/01/27 14:30:43;;;;;;;;;;;3.10;1.00;;;;;;5114561;28;19931;-68
2021/01/27 14:33:09;;;;;;;;;;;3.10;1.00;;;;;;5113842;27;19927;-66
2021/01/27 14:35:35;;;;;;;;;;;3.10;1.00;;;;;;5114771;28;19924;-66
2021/01/27 14:38:01;;;;;;;;;;;3.10;1.00;;;;;;5113609;28;20441;-63
2021/01/27 14:40:28;;;;;;;;;;;3.10;1.00;;;;;;5114396;28;20384;-63
2021/01/27 14:42:54;;;;;;;;;;;3.10;1.00;;;;;;5117039;27;19924;-63
2021/01/27 14:45:21;;;;;;;;;;;3.10;1.00;;;;;;5114703;28;19927;-63
2021/01/27 14:47:47;;;;;;;;;;;3.20;1.00;;;;;;5113942;28;19928;-63